Time;durP1;ratioP1;P1;durP2;ratioP2;P2;SDS_P1;SDS_P2;PMS_P1;PMS_P2;Temp;Humidity;BMP_temperature;BMP_pressure;BME280_temperature;BME280_humidity;BME280_pressure;Samples;Min_cycle;Max_cycle;Signal;HPM_P1;HPM_P2
2022/04/07 00:01:32;;;;;;;2.50;2.03;;;13.20;42.80;;;;;;5092085;28;20172;-73
2022/04/07 00:03:58;;;;;;;2.50;2.00;;;13.00;43.20;;;;;;5098253;28;20191;-74
2022/04/07 00:06:23;;;;;;;2.63;2.00;;;13.10;42.80;;;;;;5098198;28;20739;-73
2022/04/07 00:08:49;;;;;;;2.20;1.90;;;13.50;41.90;;;;;;5096825;28;20192;-73
2022/04/07 00:11:15;;;;;;;2.63;1.77;;;13.30;44.50;;;;;;5098443;28;20185;-74
2022/04/07 00:13:41;;;;;;;3.87;2.10;;;13.10;45.70;;;;;;5098864;28;20433;-73
2022/04/07 00:16:07;;;;;;;2.30;1.90;;;13.10;46.00;;;;;;5099034;28;20685;-73
2022/04/07 00:18:33;;;;;;;4.50;1.83;;;13.20;46.10;;;;;;5106666;28;20527;-73
2022/04/07 00:21:01;;;;;;;2.93;1.87;;;13.00;47.30;;;;;;5092171;28;20425;-73
2022/04/07 00:23:27;;;;;;;2.97;1.80;;;12.70;49.30;;;;;;5090756;28;20263;-73
2022/04/07 00:25:53;;;;;;;8.47;1.93;;;12.60;51.00;;;;;;5103485;28;20543;-72
2022/04/07 00:28:18;;;;;;;2.20;1.90;;;12.50;54.40;;;;;;5101273;28;20543;-72
2022/04/07 00:30:44;;;;;;;7.63;1.70;;;12.70;54.20;;;;;;5092970;28;20174;-73
2022/04/07 00:33:10;;;;;;;3.67;1.80;;;12.90;52.40;;;;;;5097171;28;20579;-73
2022/04/07 00:35:37;;;;;;;2.40;1.90;;;13.00;52.20;;;;;;5101389;28;20422;-73
2022/04/07 00:38:03;;;;;;;2.20;1.70;;;12.80;52.90;;;;;;5101519;28;20894;-74
2022/04/07 00:40:29;;;;;;;2.77;2.00;;;13.10;52.00;;;;;;5091766;28;20439;-72
2022/04/07 00:42:55;;;;;;;2.60;1.90;;;13.20;51.50;;;;;;5104900;28;20451;-73
2022/04/07 00:45:22;;;;;;;2.70;1.73;;;13.20;51.90;;;;;;5102779;28;20491;-73
2022/04/07 00:47:49;;;;;;;3.37;2.23;;;13.30;52.90;;;;;;5100134;28;20178;-73
2022/04/07 00:50:16;;;;;;;2.73;1.87;;;13.10;52.40;;;;;;5095546;28;20945;-73
2022/04/07 00:52:44;;;;;;;5.13;1.90;;;12.90;53.20;;;;;;5075960;28;20421;-72
2022/04/07 00:55:11;;;;;;;2.50;1.80;;;12.80;53.10;;;;;;5094815;28;20446;-73
2022/04/07 00:57:39;;;;;;;3.87;1.97;;;12.50;54.90;;;;;;5101879;28;20487;-73
2022/04/07 01:00:07;;;;;;;2.43;1.80;;;12.70;54.30;;;;;;5093689;28;20944;-73
2022/04/07 01:02:32;;;;;;;2.70;2.00;;;13.20;52.70;;;;;;5098726;28;20473;-73
2022/04/07 01:04:58;;;;;;;3.60;2.03;;;13.50;50.20;;;;;;5101508;28;20468;-73
2022/04/07 01:07:26;;;;;;;2.33;1.70;;;13.60;49.10;;;;;;5100951;28;20174;-74
2022/04/07 01:09:52;;;;;;;2.63;1.93;;;13.90;49.00;;;;;;5096911;28;20733;-73
2022/04/07 01:12:18;;;;;;;3.03;2.00;;;13.80;48.20;;;;;;5078170;28;20517;-72
2022/04/07 01:14:54;;;;;;;2.67;2.10;;;13.00;47.60;;;;;;5093569;28;20198;-73
2022/04/07 01:17:20;;;;;;;2.90;1.73;;;13.50;49.30;;;;;;5106541;28;20510;-72
2022/04/07 01:19:46;;;;;;;2.73;2.00;;;13.10;51.50;;;;;;5100953;28;20438;-72
2022/04/07 01:22:13;;;;;;;2.50;2.00;;;12.90;52.10;;;;;;5101693;28;20795;-73
2022/04/07 01:24:39;;;;;;;3.87;2.10;;;13.00;51.40;;;;;;5101158;28;20418;-73
2022/04/07 01:27:05;;;;;;;2.90;2.20;;;12.80;54.60;;;;;;5109681;28;20460;-73
2022/04/07 01:29:30;;;;;;;3.00;2.00;;;13.20;51.50;;;;;;5097186;28;20459;-73
2022/04/07 01:31:59;;;;;;;2.30;1.90;;;13.20;50.20;;;;;;5109203;28;20223;-73
2022/04/07 01:34:24;;;;;;;3.27;2.20;;;13.50;49.50;;;;;;5104329;28;20554;-72
2022/04/07 01:36:52;;;;;;;2.90;1.93;;;13.70;48.20;;;;;;5100230;28;20424;-73
2022/04/07 01:39:24;;;;;;;3.07;2.00;;;13.90;47.60;;;;;;5084023;28;20202;-73
2022/04/07 01:41:51;;;;;;;3.60;2.20;;;12.90;50.10;;;;;;5091035;28;20924;-74
2022/04/07 01:44:18;;;;;;;5.80;2.20;;;13.00;50.40;;;;;;5073924;28;20417;-73
2022/04/07 01:46:44;;;;;;;2.23;1.80;;;12.70;51.10;;;;;;5099784;28;20480;-73
2022/04/07 01:49:11;;;;;;;2.40;2.00;;;12.80;51.10;;;;;;5092629;28;20528;-73
2022/04/07 01:51:38;;;;;;;2.80;2.13;;;13.50;48.10;;;;;;5099394;28;20948;-72
2022/04/07 01:54:04;;;;;;;2.83;2.20;;;13.70;46.50;;;;;;5091564;28;20426;-73
2022/04/07 01:56:30;;;;;;;3.27;2.10;;;13.60;46.20;;;;;;5096382;28;20546;-73
2022/04/07 01:58:56;;;;;;;2.40;1.90;;;13.60;46.50;;;;;;5093508;28;20259;-74
2022/04/07 02:01:22;;;;;;;3.23;2.03;;;13.30;46.70;;;;;;5091688;28;20445;-73
2022/04/07 02:03:47;;;;;;;3.10;2.23;;;13.10;47.50;;;;;;5091806;28;20427;-73
2022/04/07 02:06:18;;;;;;;3.63;2.20;;;13.00;47.70;;;;;;5095877;28;20287;-72
2022/04/07 02:08:45;;;;;;;3.03;2.00;;;12.90;46.90;;;;;;5096620;28;20276;-73
2022/04/07 02:11:11;;;;;;;3.13;2.20;;;12.50;49.20;;;;;;5096990;28;20950;-71
2022/04/07 02:13:39;;;;;;;2.60;2.30;;;13.20;47.60;;;;;;5099477;28;20989;-73
2022/04/07 02:16:07;;;;;;;2.60;2.10;;;12.80;46.90;;;;;;5091698;28;20796;-73
2022/04/07 02:18:32;;;;;;;2.40;1.93;;;13.00;44.50;;;;;;5099166;28;20967;-73
2022/04/07 02:20:58;;;;;;;4.00;2.00;;;12.40;45.40;;;;;;5098746;28;20510;-72
2022/04/07 02:23:24;;;;;;;2.77;2.00;;;11.60;45.80;;;;;;5110048;28;20456;-73
2022/04/07 02:25:50;;;;;;;2.00;1.70;;;11.80;47.80;;;;;;5091598;28;20569;-73
2022/04/07 02:28:15;;;;;;;3.33;1.90;;;11.60;48.60;;;;;;5099201;28;20426;-73
2022/04/07 02:30:41;;;;;;;2.33;1.90;;;11.90;46.20;;;;;;5052089;28;1147394;-73
2022/04/07 02:33:07;;;;;;;2.50;2.00;;;12.50;44.60;;;;;;5107472;28;20465;-73
2022/04/07 02:35:32;;;;;;;2.77;2.20;;;12.70;42.00;;;;;;5093401;28;20191;-73
2022/04/07 02:38:00;;;;;;;2.73;1.80;;;13.10;41.20;;;;;;5100110;28;20186;-73
2022/04/07 02:40:26;;;;;;;4.93;2.10;;;13.50;39.00;;;;;;5093348;28;20228;-73
2022/04/07 02:42:52;;;;;;;2.23;1.90;;;13.50;38.60;;;;;;5084040;28;21015;-74
2022/04/07 02:45:18;;;;;;;2.67;1.70;;;13.60;38.10;;;;;;5099860;28;20202;-74
2022/04/07 02:47:44;;;;;;;2.47;1.73;;;13.20;38.80;;;;;;5099685;28;20218;-73
2022/04/07 02:50:10;;;;;;;2.57;1.70;;;12.60;40.00;;;;;;5098475;28;20445;-73
2022/04/07 02:52:35;;;;;;;5.60;1.87;;;12.70;39.80;;;;;;5094306;28;20793;-73
2022/04/07 02:55:02;;;;;;;2.80;2.00;;;12.70;39.80;;;;;;5106708;28;20271;-73
2022/04/07 02:57:34;;;;;;;11.27;2.10;;;12.90;38.40;;;;;;5094244;28;20189;-72
2022/04/07 03:00:00;;;;;;;4.40;1.90;;;12.50;40.10;;;;;;5088882;28;20448;-72
2022/04/07 03:02:26;;;;;;;2.93;1.90;;;12.30;40.70;;;;;;5102339;28;20440;-73
2022/04/07 03:04:52;;;;;;;3.53;2.00;;;12.20;40.10;;;;;;5102702;28;20459;-73
2022/04/07 03:07:19;;;;;;;3.00;2.00;;;12.30;40.20;;;;;;5091704;28;20418;-73
2022/04/07 03:09:45;;;;;;;4.13;2.10;;;12.60;38.70;;;;;;5092991;28;20499;-72
2022/04/07 03:12:13;;;;;;;2.83;2.13;;;12.50;39.20;;;;;;5103788;28;21052;-73
2022/04/07 03:14:39;;;;;;;2.60;1.80;;;12.40;40.00;;;;;;5101658;28;20434;-78
2022/04/07 03:17:05;;;;;;;6.63;2.00;;;12.20;39.90;;;;;;5102697;28;20939;-73
2022/04/07 03:19:31;;;;;;;3.77;2.10;;;12.20;39.40;;;;;;5102571;28;20518;-73
2022/04/07 03:21:57;;;;;;;3.23;1.93;;;12.30;40.00;;;;;;5096956;28;20559;-73
2022/04/07 03:24:24;;;;;;;2.90;2.10;;;12.70;39.00;;;;;;5098998;28;20437;-73
2022/04/07 03:26:50;;;;;;;3.07;2.30;;;12.40;38.70;;;;;;5098697;28;20495;-73
2022/04/07 03:29:17;;;;;;;3.93;2.30;;;12.10;39.30;;;;;;5090583;28;20457;-72
2022/04/07 03:31:42;;;;;;;5.53;2.10;;;11.80;41.00;;;;;;5091632;28;20511;-73
2022/04/07 03:34:08;;;;;;;3.43;2.10;;;12.00;40.20;;;;;;5102845;28;20964;-73
2022/04/07 03:36:34;;;;;;;4.43;2.07;;;12.30;38.90;;;;;;5093747;28;20577;-73
2022/04/07 03:38:59;;;;;;;2.50;1.80;;;12.60;38.90;;;;;;5100500;28;20210;-72
2022/04/07 03:41:28;;;;;;;3.17;2.30;;;12.60;38.40;;;;;;5102294;28;20280;-73
2022/04/07 03:43:54;;;;;;;3.13;2.13;;;12.40;40.20;;;;;;5075618;28;20186;-73
2022/04/07 03:46:21;;;;;;;3.77;2.20;;;12.90;38.70;;;;;;5096749;28;20458;-73
2022/04/07 03:48:49;;;;;;;4.80;2.10;;;12.30;39.20;;;;;;5090688;28;20494;-73
2022/04/07 03:51:15;;;;;;;2.70;2.20;;;12.50;38.80;;;;;;5097645;28;20422;-71
2022/04/07 03:53:40;;;;;;;3.73;2.10;;;12.40;38.70;;;;;;5106846;28;20929;-71
2022/04/07 03:56:06;;;;;;;2.60;2.03;;;12.40;38.70;;;;;;5099132;28;20837;-72
2022/04/07 03:58:32;;;;;;;5.40;2.13;;;12.80;38.10;;;;;;5091898;28;20190;-73
2022/04/07 04:00:58;;;;;;;4.50;2.40;;;12.50;38.40;;;;;;5092415;28;20233;-73
2022/04/07 04:03:24;;;;;;;3.20;1.93;;;12.20;39.20;;;;;;5099621;28;20248;-74
2022/04/07 04:05:50;;;;;;;3.60;2.23;;;12.40;39.10;;;;;;5101331;28;20548;-73
2022/04/07 04:08:15;;;;;;;3.40;2.23;;;12.60;40.00;;;;;;5102504;28;20174;-73
2022/04/07 04:10:41;;;;;;;3.77;2.00;;;12.50;38.70;;;;;;5082449;28;20601;-73
2022/04/07 04:13:07;;;;;;;6.43;2.30;;;12.60;38.20;;;;;;5109075;28;20178;-73
2022/04/07 04:15:32;;;;;;;3.30;2.00;;;12.10;39.90;;;;;;5096749;28;20184;-72
2022/04/07 04:17:58;;;;;;;2.23;1.90;;;12.30;39.40;;;;;;5091404;28;20700;-73
2022/04/07 04:20:24;;;;;;;2.93;2.00;;;12.40;39.10;;;;;;5102318;28;20203;-73
2022/04/07 04:22:50;;;;;;;3.10;2.20;;;12.10;39.90;;;;;;5092619;28;20289;-73
2022/04/07 04:25:16;;;;;;;3.97;2.07;;;12.20;39.90;;;;;;5094486;28;20206;-74
2022/04/07 04:27:42;;;;;;;3.83;1.80;;;12.10;40.70;;;;;;5102463;28;20436;-73
2022/04/07 04:30:09;;;;;;;2.70;2.03;;;11.80;41.80;;;;;;5101932;28;20616;-74
2022/04/07 04:32:35;;;;;;;3.73;1.93;;;12.00;40.40;;;;;;5097262;28;20175;-72
2022/04/07 04:35:01;;;;;;;2.17;1.73;;;12.20;39.90;;;;;;5092065;28;20466;-73
2022/04/07 04:37:27;;;;;;;2.53;1.80;;;12.10;39.10;;;;;;5071659;28;20523;-72
2022/04/07 04:39:53;;;;;;;2.70;1.90;;;11.90;40.80;;;;;;5090047;28;20476;-73
2022/04/07 04:42:19;;;;;;;4.73;2.20;;;12.10;39.80;;;;;;5100026;28;20178;-72
2022/04/07 04:44:49;;;;;;;3.40;1.87;;;11.90;40.20;;;;;;5105664;28;20510;-72
2022/04/07 04:47:16;;;;;;;2.73;2.00;;;11.80;39.90;;;;;;5105169;28;20432;-73
2022/04/07 04:49:42;;;;;;;3.17;1.67;;;11.50;41.90;;;;;;5095420;28;21055;-73
2022/04/07 04:52:09;;;;;;;1.90;1.60;;;11.70;40.30;;;;;;5103241;28;20511;-73
2022/04/07 04:54:35;;;;;;;2.30;1.77;;;12.40;38.60;;;;;;5099088;28;20890;-73
2022/04/07 04:57:01;;;;;;;2.17;1.70;;;12.80;36.60;;;;;;5104899;28;20424;-73
2022/04/07 04:59:27;;;;;;;3.40;1.87;;;12.70;36.10;;;;;;5089351;28;20221;-72
2022/04/07 05:01:53;;;;;;;4.97;1.90;;;12.50;36.90;;;;;;5076590;28;20171;-73
2022/04/07 05:04:18;;;;;;;3.20;1.83;;;12.70;36.30;;;;;;5103452;28;20486;-73
2022/04/07 05:06:44;;;;;;;5.10;1.70;;;12.40;37.50;;;;;;5104308;28;20202;-73
2022/04/07 05:09:10;;;;;;;2.50;1.70;;;12.20;37.10;;;;;;5102514;28;20598;-72
2022/04/07 05:11:35;;;;;;;2.27;1.70;;;12.30;37.20;;;;;;5095811;28;20725;-74
2022/04/07 05:14:01;;;;;;;2.03;1.60;;;12.40;37.60;;;;;;5093985;28;20188;-74
2022/04/07 05:16:27;;;;;;;2.53;1.57;;;12.90;36.00;;;;;;5104457;28;20177;-73
2022/04/07 05:18:52;;;;;;;2.30;1.70;;;13.10;34.90;;;;;;5096375;28;20222;-73
2022/04/07 05:21:18;;;;;;;3.33;1.57;;;13.10;35.20;;;;;;5093414;28;20274;-73
2022/04/07 05:23:44;;;;;;;2.10;1.60;;;12.90;35.50;;;;;;5101566;28;20187;-72
2022/04/07 05:26:12;;;;;;;2.10;1.40;;;12.80;35.00;;;;;;5094537;28;20487;-74
2022/04/07 05:28:39;;;;;;;2.00;1.50;;;12.80;35.00;;;;;;5091274;28;20516;-74
2022/04/07 05:31:04;;;;;;;2.07;1.70;;;12.70;35.40;;;;;;5084042;28;20426;-72
2022/04/07 05:33:30;;;;;;;1.90;1.43;;;12.60;36.30;;;;;;5104554;28;20437;-73
2022/04/07 05:35:56;;;;;;;1.80;1.50;;;12.80;35.90;;;;;;5107687;28;20216;-74
2022/04/07 05:38:21;;;;;;;2.00;1.50;;;12.90;35.30;;;;;;5103633;28;20187;-75
2022/04/07 05:40:47;;;;;;;4.50;1.60;;;13.10;35.20;;;;;;5100782;28;20186;-73
2022/04/07 05:43:12;;;;;;;1.97;1.50;;;13.20;34.80;;;;;;5093020;28;20536;-74
2022/04/07 05:45:42;;;;;;;1.70;1.50;;;13.00;35.10;;;;;;5082379;28;20291;-72
2022/04/07 05:48:10;;;;;;;2.97;1.70;;;13.20;34.90;;;;;;5098498;28;20256;-72
2022/04/07 05:50:36;;;;;;;2.20;1.77;;;13.40;34.40;;;;;;5104710;28;20833;-72
2022/04/07 05:53:02;;;;;;;4.73;1.60;;;13.30;34.50;;;;;;5104265;28;20462;-72
2022/04/07 05:55:27;;;;;;;3.17;1.70;;;13.20;34.30;;;;;;5110406;28;20488;-72
2022/04/07 05:57:54;;;;;;;2.33;1.70;;;13.20;35.30;;;;;;5100043;28;20184;-72
2022/04/07 06:00:20;;;;;;;3.30;1.70;;;13.40;33.80;;;;;;5099960;28;20204;-72
2022/04/07 06:02:47;;;;;;;1.90;1.60;;;13.50;34.20;;;;;;5078737;28;20430;-71
2022/04/07 06:05:16;;;;;;;2.93;1.70;;;13.30;33.70;;;;;;5102214;28;20205;-73
2022/04/07 06:07:42;;;;;;;2.17;1.60;;;13.30;34.10;;;;;;5092232;28;20767;-72
2022/04/07 06:10:08;;;;;;;2.40;1.57;;;13.40;32.80;;;;;;5092566;28;20462;-72
2022/04/07 06:12:34;;;;;;;1.83;1.50;;;13.40;34.60;;;;;;5102213;28;20424;-72
2022/04/07 06:15:00;;;;;;;4.80;1.70;;;13.40;33.50;;;;;;5099658;28;20438;-72
2022/04/07 06:17:33;;;;;;;18.77;1.80;;;13.20;34.10;;;;;;5100797;28;20502;-70
2022/04/07 06:19:58;;;;;;;6.90;1.70;;;12.80;34.00;;;;;;5104160;28;20201;-73
2022/04/07 06:22:24;;;;;;;2.10;1.50;;;13.20;33.20;;;;;;5102648;28;20785;-74
2022/04/07 06:24:50;;;;;;;3.87;1.60;;;13.00;33.80;;;;;;5103690;28;20253;-72
2022/04/07 06:27:15;;;;;;;2.63;1.60;;;13.40;32.60;;;;;;5097506;28;20186;-74
2022/04/07 06:29:41;;;;;;;4.57;1.80;;;13.50;33.30;;;;;;5096727;28;20241;-74
2022/04/07 06:32:06;;;;;;;1.80;1.60;;;13.60;32.40;;;;;;5097272;28;20617;-72
2022/04/07 06:34:32;;;;;;;2.23;1.57;;;13.80;31.60;;;;;;5102830;28;20189;-72
2022/04/07 06:36:58;;;;;;;2.57;1.60;;;13.30;32.90;;;;;;5092879;28;20189;-71
2022/04/07 06:39:23;;;;;;;3.60;1.43;;;13.30;33.00;;;;;;5099776;28;20205;-72
2022/04/07 06:41:49;;;;;;;2.00;1.47;;;13.30;32.80;;;;;;5103450;28;20177;-73
2022/04/07 06:44:15;;;;;;;2.33;1.50;;;13.50;32.30;;;;;;5103430;28;20177;-71
2022/04/07 06:46:40;;;;;;;4.93;1.60;;;13.50;31.70;;;;;;5099354;28;20687;-72
2022/04/07 06:49:06;;;;;;;3.83;1.50;;;13.70;31.70;;;;;;5093219;28;20504;-72
2022/04/07 06:51:32;;;;;;;2.00;1.50;;;14.30;30.90;;;;;;5073485;28;20178;-72
2022/04/07 06:53:57;;;;;;;2.43;1.60;;;13.90;30.80;;;;;;5102929;28;20210;-73
2022/04/07 06:56:23;;;;;;;2.63;1.60;;;13.60;32.00;;;;;;5096866;28;20628;-73
2022/04/07 06:58:49;;;;;;;3.40;1.63;;;13.80;30.50;;;;;;5099367;28;20197;-72
2022/04/07 07:01:14;;;;;;;2.77;1.70;;;13.60;31.50;;;;;;5073317;28;20205;-71
2022/04/07 07:03:40;;;;;;;2.20;1.57;;;13.50;31.80;;;;;;5091639;28;20246;-77
2022/04/07 07:06:05;;;;;;;1.73;1.40;;;13.70;31.30;;;;;;5092178;28;20234;-77
2022/04/07 07:08:31;;;;;;;3.63;1.50;;;14.10;30.70;;;;;;5103840;28;20186;-77
2022/04/07 07:10:56;;;;;;;2.77;1.50;;;13.90;31.00;;;;;;5091660;28;20216;-77
2022/04/07 07:13:23;;;;;;;2.00;1.57;;;14.10;30.40;;;;;;5097777;28;20166;-71
2022/04/07 07:15:49;;;;;;;2.10;1.60;;;14.10;30.50;;;;;;5093121;28;20264;-71
2022/04/07 07:18:15;;;;;;;4.53;1.80;;;13.80;31.00;;;;;;5096183;28;20467;-71
2022/04/07 07:20:41;;;;;;;2.90;1.60;;;14.10;31.20;;;;;;5092953;28;20468;-71
2022/04/07 07:23:10;;;;;;;10.07;1.73;;;14.20;30.00;;;;;;5090875;28;20412;-71
2022/04/07 07:25:35;;;;;;;2.00;1.70;;;14.50;30.70;;;;;;5091540;28;20206;-71
2022/04/07 07:28:03;;;;;;;2.43;1.60;;;14.70;29.90;;;;;;5090684;28;20917;-71
2022/04/07 07:30:29;;;;;;;2.20;1.70;;;14.90;29.70;;;;;;5090888;28;20258;-71
2022/04/07 07:32:55;;;;;;;2.27;1.70;;;14.50;30.40;;;;;;5094902;28;20530;-71
2022/04/07 07:35:22;;;;;;;1.93;1.50;;;14.30;31.30;;;;;;5091596;28;20432;-71
2022/04/07 07:37:55;;;;;;;1.90;1.70;;;14.50;30.90;;;;;;5091244;28;20458;-71
2022/04/07 07:40:26;;;;;;;2.10;1.70;;;14.60;30.20;;;;;;5090200;28;20470;-71
2022/04/07 07:42:56;;;;;;;3.50;1.80;;;14.80;30.00;;;;;;5095510;28;20436;-72
2022/04/07 07:45:23;;;;;;;6.27;1.60;;;14.70;30.00;;;;;;5098734;28;20504;-71
2022/04/07 07:47:50;;;;;;;1.90;1.53;;;14.70;30.00;;;;;;5089156;28;20440;-72
2022/04/07 07:50:16;;;;;;;3.00;1.90;;;14.60;29.90;;;;;;5107539;28;20437;-71
2022/04/07 07:52:41;;;;;;;2.40;1.70;;;14.20;30.90;;;;;;5100599;28;20951;-74
2022/04/07 07:55:08;;;;;;;2.53;1.60;;;14.50;30.20;;;;;;5095119;28;20254;-74
2022/04/07 07:57:33;;;;;;;4.50;2.23;;;15.10;29.20;;;;;;5096143;28;20646;-74
2022/04/07 08:00:00;;;;;;;3.47;2.40;;;15.10;29.10;;;;;;5102831;28;20486;-75
2022/04/07 08:02:26;;;;;;;3.87;2.00;;;14.90;30.10;;;;;;5105258;28;20182;-75
2022/04/07 08:04:52;;;;;;;2.00;1.63;;;14.50;30.10;;;;;;5096882;28;20799;-74
2022/04/07 08:07:18;;;;;;;8.13;2.00;;;14.30;30.80;;;;;;5099698;28;20428;-75
2022/04/07 08:09:43;;;;;;;2.60;1.50;;;14.40;31.00;;;;;;5102855;28;20783;-74
2022/04/07 08:12:09;;;;;;;2.43;1.70;;;14.70;30.00;;;;;;5076650;28;20428;-74
2022/04/07 08:14:35;;;;;;;2.50;1.57;;;15.10;30.30;;;;;;5102770;28;20210;-75
2022/04/07 08:17:01;;;;;;;2.50;1.83;;;14.90;29.90;;;;;;5102671;28;21138;-75
2022/04/07 08:19:27;;;;;;;3.13;1.90;;;14.40;31.00;;;;;;5102026;28;20227;-76
2022/04/07 08:21:53;;;;;;;4.30;1.70;;;14.20;32.20;;;;;;5095272;28;20937;-75
2022/04/07 08:24:20;;;;;;;3.53;1.67;;;14.50;31.80;;;;;;5084753;28;20271;-76
2022/04/07 08:26:46;;;;;;;2.10;1.70;;;14.90;30.20;;;;;;5094179;28;20459;-75
2022/04/07 08:29:11;;;;;;;11.83;1.80;;;14.50;31.10;;;;;;5099303;28;20449;-75
2022/04/07 08:31:37;;;;;;;2.00;1.67;;;15.10;30.20;;;;;;5106050;28;20178;-75
2022/04/07 08:34:03;;;;;;;2.93;1.77;;;16.00;29.00;;;;;;5091257;28;20201;-75
2022/04/07 08:36:29;;;;;;;1.70;1.40;;;15.50;29.30;;;;;;5110522;28;20170;-77
2022/04/07 08:38:55;;;;;;;2.00;1.57;;;15.40;29.30;;;;;;5109336;28;20240;-76
2022/04/07 08:41:21;;;;;;;2.23;1.60;;;15.20;29.80;;;;;;5108396;28;20702;-77
2022/04/07 08:43:47;;;;;;;6.53;1.80;;;14.70;30.80;;;;;;5108557;28;20426;-76
2022/04/07 08:46:13;;;;;;;2.70;1.73;;;14.50;32.10;;;;;;5104415;28;20479;-77
2022/04/07 08:48:43;;;;;;;2.20;1.60;;;14.60;32.00;;;;;;5107534;28;20257;-77
2022/04/07 08:51:10;;;;;;;2.43;1.70;;;15.20;31.00;;;;;;5086636;28;20877;-77
2022/04/07 08:53:38;;;;;;;7.63;1.60;;;15.40;30.70;;;;;;5094674;28;20418;-75
2022/04/07 08:56:05;;;;;;;5.47;1.67;;;15.70;29.60;;;;;;5105645;28;20420;-77
2022/04/07 08:58:31;;;;;;;2.10;1.70;;;15.60;29.50;;;;;;5108669;28;20426;-75
2022/04/07 09:00:57;;;;;;;3.80;1.90;;;15.10;30.40;;;;;;5104415;28;20433;-76
2022/04/07 09:03:23;;;;;;;2.10;1.63;;;15.20;30.20;;;;;;5084278;28;20174;-76
2022/04/07 09:05:57;;;;;;;2.23;1.70;;;15.70;29.50;;;;;;5099515;28;20459;-76
2022/04/07 09:08:36;;;;;;;2.20;1.53;;;15.70;30.50;;;;;;5096949;28;20503;-75
2022/04/07 09:11:05;;;;;;;2.90;1.60;;;15.90;29.30;;;;;;5110091;28;20508;-76
2022/04/07 09:13:35;;;;;;;1.90;1.50;;;15.60;29.80;;;;;;5103726;28;20852;-76
2022/04/07 09:16:07;;;;;;;3.33;1.70;;;15.30;31.40;;;;;;5084467;28;20427;-75
2022/04/07 09:18:37;;;;;;;7.03;1.67;;;15.20;33.60;;;;;;5104764;28;20939;-76
2022/04/07 09:21:04;;;;;;;5.10;1.70;;;15.10;34.80;;;;;;5104623;28;20535;-76
2022/04/07 09:23:39;;;;;;;2.83;2.00;;;14.90;34.40;;;;;;5101354;28;20425;-75
2022/04/07 09:26:10;;;;;;;2.73;1.87;;;14.70;37.70;;;;;;5103320;28;20540;-75
2022/04/07 09:28:35;;;;;;;3.60;1.90;;;14.70;36.70;;;;;;5075526;28;20409;-77
2022/04/07 09:31:02;;;;;;;2.40;1.70;;;14.70;34.40;;;;;;5098916;28;20436;-76
2022/04/07 09:33:30;;;;;;;3.07;2.30;;;15.20;35.00;;;;;;5103571;28;20171;-77
2022/04/07 09:36:19;;;;;;;2.60;1.90;;;15.40;34.30;;;;;;5101077;28;20427;-75
2022/04/07 09:38:51;;;;;;;3.50;2.10;;;15.40;33.30;;;;;;5089631;28;20805;-75
2022/04/07 09:41:19;;;;;;;6.40;1.90;;;15.00;33.20;;;;;;5094498;28;20435;-77
2022/04/07 09:43:58;;;;;;;4.70;1.80;;;15.20;32.30;;;;;;5099197;28;20417;-76
2022/04/07 09:46:23;;;;;;;3.00;2.20;;;15.50;32.10;;;;;;5103006;28;20508;-77
2022/04/07 09:49:09;;;;;;;3.77;2.10;;;16.00;31.00;;;;;;5097802;28;20825;-75
2022/04/07 09:51:40;;;;;;;3.27;2.50;;;16.30;29.10;;;;;;5101513;28;20174;-77
2022/04/07 09:54:10;;;;;;;2.67;1.80;;;16.50;29.00;;;;;;5094578;28;20444;-76
2022/04/07 09:56:37;;;;;;;2.23;1.40;;;15.90;29.60;;;;;;5104246;28;20469;-75
2022/04/07 09:59:07;;;;;;;3.53;2.00;;;15.60;29.70;;;;;;5111967;28;20446;-75
2022/04/07 10:01:33;;;;;;;11.13;2.30;;;15.80;29.60;;;;;;5104080;28;20426;-73
2022/04/07 10:04:01;;;;;;;2.97;2.00;;;15.60;30.00;;;;;;5102634;28;20429;-73
2022/04/07 10:06:27;;;;;;;2.60;1.70;;;15.40;30.20;;;;;;5092797;28;20452;-73
2022/04/07 10:08:52;;;;;;;3.97;2.30;;;15.50;31.00;;;;;;5092731;28;20446;-73
2022/04/07 10:11:18;;;;;;;2.30;1.80;;;16.10;29.80;;;;;;5101308;28;20981;-73
2022/04/07 10:13:46;;;;;;;8.63;1.70;;;16.00;29.40;;;;;;5106244;28;20226;-73
2022/04/07 10:16:14;;;;;;;7.77;1.70;;;15.60;29.50;;;;;;5099740;28;20186;-73
2022/04/07 10:18:45;;;;;;;2.60;1.90;;;15.60;30.00;;;;;;5104866;28;20415;-74
2022/04/07 10:21:29;;;;;;;5.53;1.70;;;16.00;29.90;;;;;;5104211;28;20428;-75
2022/04/07 10:24:19;;;;;;;4.20;2.13;;;16.20;28.80;;;;;;5095423;28;20416;-75
2022/04/07 10:26:47;;;;;;;4.40;1.60;;;15.80;30.00;;;;;;5099591;28;21031;-74
2022/04/07 10:29:21;;;;;;;3.33;1.70;;;15.60;30.00;;;;;;5103462;28;20460;-74
2022/04/07 10:32:12;;;;;;;11.60;1.50;;;15.90;29.60;;;;;;5088838;28;20409;-71
2022/04/07 10:34:53;;;;;;;1.80;1.60;;;15.30;29.90;;;;;;5076979;28;20418;-71
2022/04/07 10:37:51;;;;;;;3.60;1.53;;;15.60;29.90;;;;;;5102790;28;20419;-71
2022/04/07 10:40:35;;;;;;;2.10;1.57;;;15.90;29.60;;;;;;5000305;28;20526;-73
2022/04/07 10:43:06;;;;;;;3.97;1.70;;;15.40;30.30;;;;;;4995156;28;20809;-74
2022/04/07 10:45:36;;;;;;;2.20;1.57;;;15.70;30.00;;;;;;5007778;28;20460;-74
2022/04/07 10:48:20;;;;;;;4.10;1.60;;;15.80;30.00;;;;;;5003802;28;20577;-73
2022/04/07 10:51:01;;;;;;;4.20;1.50;;;16.00;29.20;;;;;;4984601;28;20799;-73
2022/04/07 10:54:01;;;;;;;4.83;1.73;;;16.00;28.90;;;;;;4992789;28;20417;-72
2022/04/07 10:56:34;;;;;;;2.17;1.47;;;15.90;29.10;;;;;;4931009;29;20472;-72
2022/04/07 10:59:18;;;;;;;11.00;1.60;;;15.00;31.00;;;;;;4925122;29;20447;-73
2022/04/07 11:01:47;;;;;;;1.70;1.40;;;15.50;30.70;;;;;;4931162;29;20423;-73
2022/04/07 11:04:21;;;;;;;5.07;1.50;;;15.90;29.60;;;;;;4931682;29;20477;-73
2022/04/07 11:07:05;;;;;;;1.70;1.40;;;15.90;29.70;;;;;;4931314;29;20468;-73
2022/04/07 11:09:54;;;;;;;1.97;1.47;;;15.80;30.00;;;;;;4931414;29;20531;-74
2022/04/07 11:12:25;;;;;;;2.00;1.40;;;16.00;29.80;;;;;;4931558;29;20509;-74
2022/04/07 11:15:03;;;;;;;4.53;1.50;;;16.10;29.60;;;;;;4936774;28;20510;-74
2022/04/07 11:17:46;;;;;;;1.63;1.40;;;16.10;29.80;;;;;;5008894;28;20413;-74
2022/04/07 11:20:23;;;;;;;4.80;1.60;;;15.70;29.90;;;;;;5008345;28;20594;-74
2022/04/07 11:22:57;;;;;;;1.80;1.40;;;16.10;29.80;;;;;;5008826;28;20415;-74
2022/04/07 11:25:33;;;;;;;3.20;1.60;;;15.90;29.80;;;;;;5000839;28;21017;-74
2022/04/07 11:28:22;;;;;;;1.60;1.40;;;16.00;31.10;;;;;;5008549;28;20428;-73
2022/04/07 11:30:52;;;;;;;1.60;1.30;;;16.40;29.30;;;;;;5008497;28;20449;-73
2022/04/07 11:36:02;;;;;;;8.73;1.57;;;16.60;28.70;;;;;;5102862;28;20421;-73
2022/04/07 11:38:32;;;;;;;4.13;1.53;;;16.30;29.10;;;;;;5083808;28;20418;-74
2022/04/07 11:40:59;;;;;;;1.77;1.40;;;16.00;29.90;;;;;;5099355;28;20423;-75
2022/04/07 11:43:24;;;;;;;4.30;1.50;;;16.70;29.00;;;;;;5095930;28;20487;-75
2022/04/07 11:45:50;;;;;;;6.17;1.50;;;17.30;28.50;;;;;;5094187;28;21156;-76
2022/04/07 11:48:16;;;;;;;5.50;1.60;;;18.10;27.50;;;;;;5107673;28;20181;-76
2022/04/07 11:50:41;;;;;;;1.80;1.40;;;17.90;28.10;;;;;;5099056;28;20198;-75
2022/04/07 11:53:07;;;;;;;3.00;1.50;;;17.80;27.90;;;;;;5096988;28;20182;-76
2022/04/07 11:55:32;;;;;;;3.10;2.07;;;17.00;29.40;;;;;;5111234;28;20178;-75
2022/04/07 11:57:59;;;;;;;1.70;1.50;;;16.70;29.90;;;;;;5101581;28;20203;-76
2022/04/07 12:00:29;;;;;;;4.03;1.60;;;17.20;29.20;;;;;;5102677;28;20201;-76
2022/04/07 12:03:02;;;;;;;4.73;1.60;;;17.10;28.40;;;;;;5099154;28;20858;-75
2022/04/07 12:05:30;;;;;;;2.20;1.60;;;16.70;29.50;;;;;;5091284;28;20464;-75
2022/04/07 12:08:25;;;;;;;2.13;1.40;;;16.20;30.20;;;;;;5102236;28;20421;-75
2022/04/07 12:10:51;;;;;;;2.77;1.80;;;15.80;33.20;;;;;;5004920;28;20460;-75
2022/04/07 12:13:16;;;;;;;3.27;1.53;;;16.70;31.90;;;;;;4990461;28;20435;-75
2022/04/07 12:15:42;;;;;;;4.53;2.23;;;16.70;30.30;;;;;;4989720;28;20196;-74
2022/04/07 12:18:08;;;;;;;2.97;1.80;;;16.30;29.30;;;;;;4994049;28;20218;-75
2022/04/07 12:20:36;;;;;;;1.70;1.40;;;16.20;30.50;;;;;;4999832;28;20703;-74
2022/04/07 12:23:05;;;;;;;6.07;1.60;;;16.40;29.40;;;;;;5000228;28;20484;-75
2022/04/07 12:25:31;;;;;;;7.70;1.80;;;16.00;29.90;;;;;;5000584;28;20467;-74
2022/04/07 12:28:17;;;;;;;1.60;1.40;;;15.70;30.10;;;;;;4992679;28;20428;-74
2022/04/07 12:30:55;;;;;;;2.00;1.67;;;15.90;30.50;;;;;;5002201;28;20211;-73
2022/04/07 12:33:44;;;;;;;4.37;1.63;;;16.30;30.00;;;;;;4989054;28;20424;-74
2022/04/07 12:36:14;;;;;;;5.10;1.80;;;16.20;29.50;;;;;;5001226;28;20553;-74
2022/04/07 12:38:41;;;;;;;3.37;2.50;;;15.60;31.20;;;;;;5007023;28;20444;-75
2022/04/07 12:41:16;;;;;;;2.57;1.80;;;15.70;31.40;;;;;;5000031;28;20424;-74
2022/04/07 12:43:53;;;;;;;2.30;1.70;;;15.40;32.20;;;;;;4999944;28;20422;-74
2022/04/07 12:46:20;;;;;;;4.33;1.70;;;15.40;32.90;;;;;;5009568;28;20459;-73
2022/04/07 12:49:01;;;;;;;3.90;1.80;;;14.90;34.30;;;;;;5102948;28;20432;-74
2022/04/07 12:51:27;;;;;;;3.60;1.63;;;15.10;33.40;;;;;;5112961;28;20412;-75
2022/04/07 12:54:06;;;;;;;2.10;1.70;;;14.70;34.90;;;;;;5084843;28;20417;-73